sensor_id;sensor_type;location;lat;lon;timestamp;P1;durP1;ratioP1;P2;durP2;ratioP2
10884;SDS011;5495;53.252;10.390;2023-03-20T00:00:30;41.80;;;18.80;;
10884;SDS011;5495;53.252;10.390;2023-03-20T00:03:05;40.53;;;17.80;;
10884;SDS011;5495;53.252;10.390;2023-03-20T00:05:51;39.83;;;18.63;;
10884;SDS011;5495;53.252;10.390;2023-03-20T00:08:33;36.67;;;18.70;;
10884;SDS011;5495;53.252;10.390;2023-03-20T00:11:00;36.83;;;18.27;;
10884;SDS011;5495;53.252;10.390;2023-03-20T00:13:28;39.77;;;19.77;;
10884;SDS011;5495;53.252;10.390;2023-03-20T00:16:01;34.30;;;17.43;;
10884;SDS011;5495;53.252;10.390;2023-03-20T00:18:52;33.10;;;17.47;;
10884;SDS011;5495;53.252;10.390;2023-03-20T00:21:39;36.03;;;18.40;;
10884;SDS011;5495;53.252;10.390;2023-03-20T00:24:38;33.03;;;17.70;;
10884;SDS011;5495;53.252;10.390;2023-03-20T00:27:21;31.93;;;17.17;;
10884;SDS011;5495;53.252;10.390;2023-03-20T00:30:11;31.43;;;15.87;;
10884;SDS011;5495;53.252;10.390;2023-03-20T00:33:07;31.50;;;15.53;;
10884;SDS011;5495;53.252;10.390;2023-03-20T00:39:08;32.47;;;15.90;;
10884;SDS011;5495;53.252;10.390;2023-03-20T00:42:06;29.17;;;15.23;;
10884;SDS011;5495;53.252;10.390;2023-03-20T00:45:19;29.13;;;14.83;;
10884;SDS011;5495;53.252;10.390;2023-03-20T00:48:11;30.60;;;16.60;;
10884;SDS011;5495;53.252;10.390;2023-03-20T00:50:54;31.03;;;17.00;;
10884;SDS011;5495;53.252;10.390;2023-03-20T00:53:40;29.67;;;15.80;;
10884;SDS011;5495;53.252;10.390;2023-03-20T00:56:30;28.53;;;16.10;;
10884;SDS011;5495;53.252;10.390;2023-03-20T00:59:08;26.80;;;15.17;;
10884;SDS011;5495;53.252;10.390;2023-03-20T01:01:45;27.13;;;14.23;;
10884;SDS011;5495;53.252;10.390;2023-03-20T01:04:37;32.60;;;16.40;;
10884;SDS011;5495;53.252;10.390;2023-03-20T01:07:13;31.73;;;16.43;;
10884;SDS011;5495;53.252;10.390;2023-03-20T01:09:47;26.97;;;16.13;;
10884;SDS011;5495;53.252;10.390;2023-03-20T01:12:22;30.63;;;16.50;;
10884;SDS011;5495;53.252;10.390;2023-03-20T01:14:56;29.93;;;16.80;;
10884;SDS011;5495;53.252;10.390;2023-03-20T01:17:38;31.30;;;16.57;;
10884;SDS011;5495;53.252;10.390;2023-03-20T01:20:42;32.67;;;16.27;;
10884;SDS011;5495;53.252;10.390;2023-03-20T01:23:34;28.57;;;15.47;;
10884;SDS011;5495;53.252;10.390;2023-03-20T01:26:10;29.67;;;16.07;;
10884;SDS011;5495;53.252;10.390;2023-03-20T01:28:53;25.27;;;15.17;;
10884;SDS011;5495;53.252;10.390;2023-03-20T01:31:32;27.43;;;14.63;;
10884;SDS011;5495;53.252;10.390;2023-03-20T01:34:02;27.10;;;15.00;;
10884;SDS011;5495;53.252;10.390;2023-03-20T01:36:44;26.97;;;15.47;;
10884;SDS011;5495;53.252;10.390;2023-03-20T01:39:25;28.33;;;14.00;;
10884;SDS011;5495;53.252;10.390;2023-03-20T01:42:05;25.67;;;13.83;;
10884;SDS011;5495;53.252;10.390;2023-03-20T01:44:46;25.33;;;14.23;;
10884;SDS011;5495;53.252;10.390;2023-03-20T01:47:22;25.73;;;13.97;;
10884;SDS011;5495;53.252;10.390;2023-03-20T01:53:04;27.47;;;13.63;;
10884;SDS011;5495;53.252;10.390;2023-03-20T01:55:39;27.70;;;14.70;;
10884;SDS011;5495;53.252;10.390;2023-03-20T01:58:18;28.60;;;15.03;;
10884;SDS011;5495;53.252;10.390;2023-03-20T02:00:52;24.20;;;13.23;;
10884;SDS011;5495;53.252;10.390;2023-03-20T02:06:20;24.13;;;13.63;;
10884;SDS011;5495;53.252;10.390;2023-03-20T02:08:51;27.20;;;12.20;;
10884;SDS011;5495;53.252;10.390;2023-03-20T02:11:50;20.67;;;11.90;;
10884;SDS011;5495;53.252;10.390;2023-03-20T02:14:20;21.67;;;12.77;;
10884;SDS011;5495;53.252;10.390;2023-03-20T02:16:51;24.50;;;12.50;;
10884;SDS011;5495;53.252;10.390;2023-03-20T02:19:38;25.17;;;12.73;;
10884;SDS011;5495;53.252;10.390;2023-03-20T02:28:58;24.33;;;12.27;;
10884;SDS011;5495;53.252;10.390;2023-03-20T02:35:00;22.80;;;12.47;;
10884;SDS011;5495;53.252;10.390;2023-03-20T02:38:34;24.97;;;11.83;;
10884;SDS011;5495;53.252;10.390;2023-03-20T02:41:38;23.60;;;12.63;;
10884;SDS011;5495;53.252;10.390;2023-03-20T02:44:12;25.37;;;12.27;;
10884;SDS011;5495;53.252;10.390;2023-03-20T02:46:49;24.37;;;13.00;;
10884;SDS011;5495;53.252;10.390;2023-03-20T02:49:37;31.37;;;13.57;;
10884;SDS011;5495;53.252;10.390;2023-03-20T02:52:30;25.83;;;12.90;;
10884;SDS011;5495;53.252;10.390;2023-03-20T02:55:07;25.67;;;12.90;;
10884;SDS011;5495;53.252;10.390;2023-03-20T02:57:49;23.90;;;12.53;;
10884;SDS011;5495;53.252;10.390;2023-03-20T03:00:31;26.33;;;13.20;;
10884;SDS011;5495;53.252;10.390;2023-03-20T03:03:21;26.37;;;13.17;;
10884;SDS011;5495;53.252;10.390;2023-03-20T03:06:06;28.00;;;13.60;;
10884;SDS011;5495;53.252;10.390;2023-03-20T03:08:46;31.40;;;14.73;;
10884;SDS011;5495;53.252;10.390;2023-03-20T03:11:28;29.40;;;13.20;;
10884;SDS011;5495;53.252;10.390;2023-03-20T03:14:17;30.20;;;14.37;;
10884;SDS011;5495;53.252;10.390;2023-03-20T03:16:59;31.37;;;14.00;;
10884;SDS011;5495;53.252;10.390;2023-03-20T03:19:38;27.73;;;13.03;;
10884;SDS011;5495;53.252;10.390;2023-03-20T03:22:23;27.70;;;13.87;;
10884;SDS011;5495;53.252;10.390;2023-03-20T03:24:56;28.30;;;13.67;;
10884;SDS011;5495;53.252;10.390;2023-03-20T03:27:37;30.33;;;14.80;;
10884;SDS011;5495;53.252;10.390;2023-03-20T03:30:19;29.77;;;14.40;;
10884;SDS011;5495;53.252;10.390;2023-03-20T03:33:02;34.20;;;15.47;;
10884;SDS011;5495;53.252;10.390;2023-03-20T03:35:41;32.43;;;15.20;;
10884;SDS011;5495;53.252;10.390;2023-03-20T03:38:23;35.17;;;16.03;;
10884;SDS011;5495;53.252;10.390;2023-03-20T03:41:17;33.17;;;15.80;;
10884;SDS011;5495;53.252;10.390;2023-03-20T03:43:53;31.97;;;15.93;;
10884;SDS011;5495;53.252;10.390;2023-03-20T03:46:44;33.13;;;15.70;;
10884;SDS011;5495;53.252;10.390;2023-03-20T03:49:29;35.07;;;15.87;;
10884;SDS011;5495;53.252;10.390;2023-03-20T03:52:14;36.67;;;16.57;;
10884;SDS011;5495;53.252;10.390;2023-03-20T03:54:57;34.03;;;16.57;;
10884;SDS011;5495;53.252;10.390;2023-03-20T03:57:51;35.83;;;16.50;;
10884;SDS011;5495;53.252;10.390;2023-03-20T04:00:31;34.87;;;16.03;;
10884;SDS011;5495;53.252;10.390;2023-03-20T04:03:22;34.43;;;16.23;;
10884;SDS011;5495;53.252;10.390;2023-03-20T04:06:11;32.37;;;14.97;;
10884;SDS011;5495;53.252;10.390;2023-03-20T04:08:43;29.13;;;15.50;;
10884;SDS011;5495;53.252;10.390;2023-03-20T04:11:20;29.53;;;13.97;;
10884;SDS011;5495;53.252;10.390;2023-03-20T04:13:59;27.77;;;13.27;;
10884;SDS011;5495;53.252;10.390;2023-03-20T04:16:42;29.97;;;13.93;;
10884;SDS011;5495;53.252;10.390;2023-03-20T04:19:26;23.77;;;12.43;;
10884;SDS011;5495;53.252;10.390;2023-03-20T04:22:10;24.27;;;12.63;;
10884;SDS011;5495;53.252;10.390;2023-03-20T04:25:16;25.17;;;13.13;;
10884;SDS011;5495;53.252;10.390;2023-03-20T04:27:51;22.80;;;12.50;;
10884;SDS011;5495;53.252;10.390;2023-03-20T04:30:22;23.70;;;11.40;;
10884;SDS011;5495;53.252;10.390;2023-03-20T04:33:03;26.67;;;12.30;;
10884;SDS011;5495;53.252;10.390;2023-03-20T04:35:38;22.63;;;12.27;;
10884;SDS011;5495;53.252;10.390;2023-03-20T04:38:10;20.70;;;10.87;;
10884;SDS011;5495;53.252;10.390;2023-03-20T04:40:58;23.77;;;11.30;;
10884;SDS011;5495;53.252;10.390;2023-03-20T04:43:51;18.47;;;10.13;;
10884;SDS011;5495;53.252;10.390;2023-03-20T04:46:44;23.80;;;10.53;;
10884;SDS011;5495;53.252;10.390;2023-03-20T04:49:25;20.40;;;10.70;;
10884;SDS011;5495;53.252;10.390;2023-03-20T04:52:07;18.43;;;9.57;;
10884;SDS011;5495;53.252;10.390;2023-03-20T04:54:42;21.27;;;9.80;;
10884;SDS011;5495;53.252;10.390;2023-03-20T04:57:20;22.37;;;10.77;;
10884;SDS011;5495;53.252;10.390;2023-03-20T04:59:54;15.37;;;9.17;;
10884;SDS011;5495;53.252;10.390;2023-03-20T05:02:28;12.93;;;7.87;;
10884;SDS011;5495;53.252;10.390;2023-03-20T05:05:01;12.40;;;7.10;;
10884;SDS011;5495;53.252;10.390;2023-03-20T05:07:29;13.10;;;6.63;;
10884;SDS011;5495;53.252;10.390;2023-03-20T05:10:17;10.90;;;5.20;;
10884;SDS011;5495;53.252;10.390;2023-03-20T05:16:32;8.20;;;4.47;;
10884;SDS011;5495;53.252;10.390;2023-03-20T05:19:04;9.13;;;5.37;;
10884;SDS011;5495;53.252;10.390;2023-03-20T05:21:40;11.10;;;5.53;;
10884;SDS011;5495;53.252;10.390;2023-03-20T05:24:22;8.77;;;4.93;;
10884;SDS011;5495;53.252;10.390;2023-03-20T05:27:03;8.73;;;4.63;;
10884;SDS011;5495;53.252;10.390;2023-03-20T05:29:38;8.60;;;5.13;;
10884;SDS011;5495;53.252;10.390;2023-03-20T05:32:05;8.30;;;4.50;;
10884;SDS011;5495;53.252;10.390;2023-03-20T05:34:44;7.47;;;4.60;;
10884;SDS011;5495;53.252;10.390;2023-03-20T05:37:16;9.70;;;5.43;;
10884;SDS011;5495;53.252;10.390;2023-03-20T05:39:59;9.40;;;4.77;;
10884;SDS011;5495;53.252;10.390;2023-03-20T05:42:54;13.00;;;5.93;;
10884;SDS011;5495;53.252;10.390;2023-03-20T05:45:43;8.43;;;4.70;;
10884;SDS011;5495;53.252;10.390;2023-03-20T05:48:27;8.53;;;4.80;;
10884;SDS011;5495;53.252;10.390;2023-03-20T05:51:10;8.30;;;4.53;;
10884;SDS011;5495;53.252;10.390;2023-03-20T05:53:54;6.07;;;3.63;;
10884;SDS011;5495;53.252;10.390;2023-03-20T05:56:37;6.47;;;3.53;;
10884;SDS011;5495;53.252;10.390;2023-03-20T06:02:50;5.37;;;3.73;;
10884;SDS011;5495;53.252;10.390;2023-03-20T06:19:03;3.60;;;1.83;;
10884;SDS011;5495;53.252;10.390;2023-03-20T06:21:40;2.73;;;1.70;;
10884;SDS011;5495;53.252;10.390;2023-03-20T06:24:33;2.37;;;1.60;;
10884;SDS011;5495;53.252;10.390;2023-03-20T06:27:10;1.30;;;1.20;;
10884;SDS011;5495;53.252;10.390;2023-03-20T06:30:00;2.30;;;1.23;;
10884;SDS011;5495;53.252;10.390;2023-03-20T06:35:54;2.10;;;1.20;;
10884;SDS011;5495;53.252;10.390;2023-03-20T06:39:00;1.10;;;1.00;;
10884;SDS011;5495;53.252;10.390;2023-03-20T06:41:50;1.63;;;1.20;;
10884;SDS011;5495;53.252;10.390;2023-03-20T06:48:08;1.20;;;1.10;;
10884;SDS011;5495;53.252;10.390;2023-03-20T06:50:53;1.70;;;1.30;;
10884;SDS011;5495;53.252;10.390;2023-03-20T06:53:54;2.37;;;1.57;;
10884;SDS011;5495;53.252;10.390;2023-03-20T06:56:24;2.43;;;1.73;;
10884;SDS011;5495;53.252;10.390;2023-03-20T06:59:17;2.60;;;1.90;;
10884;SDS011;5495;53.252;10.390;2023-03-20T07:02:34;3.13;;;1.90;;
10884;SDS011;5495;53.252;10.390;2023-03-20T07:08:10;3.07;;;2.27;;
10884;SDS011;5495;53.252;10.390;2023-03-20T07:11:03;2.57;;;2.00;;
10884;SDS011;5495;53.252;10.390;2023-03-20T07:13:38;3.33;;;2.03;;
10884;SDS011;5495;53.252;10.390;2023-03-20T07:16:53;3.43;;;2.40;;
10884;SDS011;5495;53.252;10.390;2023-03-20T07:19:42;5.27;;;2.83;;
10884;SDS011;5495;53.252;10.390;2023-03-20T07:23:03;4.40;;;2.60;;
10884;SDS011;5495;53.252;10.390;2023-03-20T07:26:05;3.80;;;2.60;;
10884;SDS011;5495;53.252;10.390;2023-03-20T07:30:13;3.63;;;2.17;;
10884;SDS011;5495;53.252;10.390;2023-03-20T07:32:10;3.80;;;2.70;;
10884;SDS011;5495;53.252;10.390;2023-03-20T07:35:20;4.53;;;2.97;;
10884;SDS011;5495;53.252;10.390;2023-03-20T07:38:11;4.57;;;3.37;;
10884;SDS011;5495;53.252;10.390;2023-03-20T07:41:25;4.97;;;3.23;;
10884;SDS011;5495;53.252;10.390;2023-03-20T07:45:35;5.33;;;3.43;;
10884;SDS011;5495;53.252;10.390;2023-03-20T07:47:18;5.57;;;3.30;;
10884;SDS011;5495;53.252;10.390;2023-03-20T07:57:21;6.40;;;3.37;;
10884;SDS011;5495;53.252;10.390;2023-03-20T08:03:48;5.10;;;3.77;;
10884;SDS011;5495;53.252;10.390;2023-03-20T08:06:44;6.30;;;4.00;;
10884;SDS011;5495;53.252;10.390;2023-03-20T08:13:13;5.57;;;3.90;;
10884;SDS011;5495;53.252;10.390;2023-03-20T08:15:53;5.03;;;3.63;;
10884;SDS011;5495;53.252;10.390;2023-03-20T08:28:29;6.47;;;3.93;;
10884;SDS011;5495;53.252;10.390;2023-03-20T08:34:00;6.57;;;4.47;;
10884;SDS011;5495;53.252;10.390;2023-03-20T08:36:44;6.87;;;4.10;;
10884;SDS011;5495;53.252;10.390;2023-03-20T08:40:14;7.27;;;5.03;;
10884;SDS011;5495;53.252;10.390;2023-03-20T08:53:22;7.97;;;5.17;;
10884;SDS011;5495;53.252;10.390;2023-03-20T08:56:26;7.63;;;5.30;;
10884;SDS011;5495;53.252;10.390;2023-03-20T09:00:00;7.13;;;4.70;;
10884;SDS011;5495;53.252;10.390;2023-03-20T09:12:43;6.63;;;4.17;;
10884;SDS011;5495;53.252;10.390;2023-03-20T09:15:35;6.53;;;4.17;;
10884;SDS011;5495;53.252;10.390;2023-03-20T09:18:51;6.77;;;4.03;;
10884;SDS011;5495;53.252;10.390;2023-03-20T09:24:55;5.80;;;4.40;;
10884;SDS011;5495;53.252;10.390;2023-03-20T09:47:48;6.77;;;4.80;;
10884;SDS011;5495;53.252;10.390;2023-03-20T09:54:41;7.03;;;4.53;;
10884;SDS011;5495;53.252;10.390;2023-03-20T09:57:42;8.00;;;4.73;;
10884;SDS011;5495;53.252;10.390;2023-03-20T10:01:00;6.93;;;4.10;;
10884;SDS011;5495;53.252;10.390;2023-03-20T10:04:07;6.27;;;4.30;;
10884;SDS011;5495;53.252;10.390;2023-03-20T10:06:42;6.10;;;4.10;;
10884;SDS011;5495;53.252;10.390;2023-03-20T10:09:13;6.27;;;4.40;;
10884;SDS011;5495;53.252;10.390;2023-03-20T10:21:51;6.90;;;3.90;;
10884;SDS011;5495;53.252;10.390;2023-03-20T10:24:47;6.40;;;3.80;;
10884;SDS011;5495;53.252;10.390;2023-03-20T10:27:43;5.17;;;3.40;;
10884;SDS011;5495;53.252;10.390;2023-03-20T10:30:32;3.60;;;2.90;;
10884;SDS011;5495;53.252;10.390;2023-03-20T10:33:25;5.40;;;3.10;;
10884;SDS011;5495;53.252;10.390;2023-03-20T10:36:41;3.73;;;3.13;;
10884;SDS011;5495;53.252;10.390;2023-03-20T10:39:45;7.20;;;3.40;;
10884;SDS011;5495;53.252;10.390;2023-03-20T10:43:31;4.33;;;3.20;;
10884;SDS011;5495;53.252;10.390;2023-03-20T10:45:56;6.20;;;3.43;;
10884;SDS011;5495;53.252;10.390;2023-03-20T10:55:11;5.07;;;3.67;;
10884;SDS011;5495;53.252;10.390;2023-03-20T10:58:39;4.50;;;3.50;;
10884;SDS011;5495;53.252;10.390;2023-03-20T11:01:32;4.47;;;3.10;;
10884;SDS011;5495;53.252;10.390;2023-03-20T11:11:34;5.90;;;3.23;;
10884;SDS011;5495;53.252;10.390;2023-03-20T11:18:18;6.93;;;3.83;;
10884;SDS011;5495;53.252;10.390;2023-03-20T11:21:25;5.63;;;3.57;;
10884;SDS011;5495;53.252;10.390;2023-03-20T11:24:17;8.00;;;3.60;;
10884;SDS011;5495;53.252;10.390;2023-03-20T11:27:29;4.70;;;3.47;;
10884;SDS011;5495;53.252;10.390;2023-03-20T11:30:02;5.77;;;3.37;;
10884;SDS011;5495;53.252;10.390;2023-03-20T11:35:56;5.30;;;3.43;;
10884;SDS011;5495;53.252;10.390;2023-03-20T11:39:24;7.03;;;3.27;;
10884;SDS011;5495;53.252;10.390;2023-03-20T11:42:01;5.40;;;3.20;;
10884;SDS011;5495;53.252;10.390;2023-03-20T11:48:36;5.60;;;3.60;;
10884;SDS011;5495;53.252;10.390;2023-03-20T11:51:27;3.87;;;3.10;;
10884;SDS011;5495;53.252;10.390;2023-03-20T11:58:26;4.73;;;3.10;;
10884;SDS011;5495;53.252;10.390;2023-03-20T12:07:02;5.93;;;3.10;;
10884;SDS011;5495;53.252;10.390;2023-03-20T12:10:27;3.50;;;2.90;;
10884;SDS011;5495;53.252;10.390;2023-03-20T12:13:33;4.90;;;2.67;;
10884;SDS011;5495;53.252;10.390;2023-03-20T12:22:59;6.37;;;3.40;;
10884;SDS011;5495;53.252;10.390;2023-03-20T12:26:00;4.80;;;3.07;;
10884;SDS011;5495;53.252;10.390;2023-03-20T12:29:36;5.80;;;2.97;;
10884;SDS011;5495;53.252;10.390;2023-03-20T12:32:27;6.43;;;3.30;;
10884;SDS011;5495;53.252;10.390;2023-03-20T12:35:13;3.67;;;2.83;;
10884;SDS011;5495;53.252;10.390;2023-03-20T12:39:10;6.97;;;3.80;;
10884;SDS011;5495;53.252;10.390;2023-03-20T12:41:04;5.03;;;2.87;;
10884;SDS011;5495;53.252;10.390;2023-03-20T12:50:27;6.27;;;4.23;;
10884;SDS011;5495;53.252;10.390;2023-03-20T12:56:46;7.37;;;3.83;;
10884;SDS011;5495;53.252;10.390;2023-03-20T12:59:49;7.17;;;4.20;;
10884;SDS011;5495;53.252;10.390;2023-03-20T13:03:06;6.40;;;3.80;;
10884;SDS011;5495;53.252;10.390;2023-03-20T13:06:16;7.63;;;4.40;;
10884;SDS011;5495;53.252;10.390;2023-03-20T13:51:28;4.90;;;3.47;;
10884;SDS011;5495;53.252;10.390;2023-03-20T13:54:26;7.63;;;3.50;;
10884;SDS011;5495;53.252;10.390;2023-03-20T14:00:58;5.93;;;2.87;;
10884;SDS011;5495;53.252;10.390;2023-03-20T14:04:21;3.93;;;2.73;;
10884;SDS011;5495;53.252;10.390;2023-03-20T14:07:27;4.73;;;3.00;;
10884;SDS011;5495;53.252;10.390;2023-03-20T14:10:02;5.03;;;2.77;;
10884;SDS011;5495;53.252;10.390;2023-03-20T14:16:05;6.07;;;3.10;;
10884;SDS011;5495;53.252;10.390;2023-03-20T14:19:15;5.60;;;2.90;;
10884;SDS011;5495;53.252;10.390;2023-03-20T14:21:52;4.87;;;2.93;;
10884;SDS011;5495;53.252;10.390;2023-03-20T14:27:35;6.40;;;2.47;;
10884;SDS011;5495;53.252;10.390;2023-03-20T14:30:36;3.17;;;2.70;;
10884;SDS011;5495;53.252;10.390;2023-03-20T14:33:35;4.70;;;2.40;;
10884;SDS011;5495;53.252;10.390;2023-03-20T14:39:52;4.93;;;3.00;;
10884;SDS011;5495;53.252;10.390;2023-03-20T14:42:59;3.77;;;2.40;;
10884;SDS011;5495;53.252;10.390;2023-03-20T14:46:02;5.23;;;2.80;;
10884;SDS011;5495;53.252;10.390;2023-03-20T14:49:04;4.50;;;2.53;;
10884;SDS011;5495;53.252;10.390;2023-03-20T14:52:11;2.47;;;2.13;;
10884;SDS011;5495;53.252;10.390;2023-03-20T15:01:23;5.97;;;2.90;;
10884;SDS011;5495;53.252;10.390;2023-03-20T15:04:13;5.30;;;2.97;;
10884;SDS011;5495;53.252;10.390;2023-03-20T15:10:29;4.80;;;2.97;;
10884;SDS011;5495;53.252;10.390;2023-03-20T15:16:35;4.13;;;3.17;;
10884;SDS011;5495;53.252;10.390;2023-03-20T15:19:35;6.30;;;2.83;;
10884;SDS011;5495;53.252;10.390;2023-03-20T15:22:13;4.90;;;2.90;;
10884;SDS011;5495;53.252;10.390;2023-03-20T15:25:03;4.50;;;2.97;;
10884;SDS011;5495;53.252;10.390;2023-03-20T15:27:34;3.93;;;2.87;;
10884;SDS011;5495;53.252;10.390;2023-03-20T15:30:05;4.77;;;3.23;;
10884;SDS011;5495;53.252;10.390;2023-03-20T15:32:40;6.13;;;3.30;;
10884;SDS011;5495;53.252;10.390;2023-03-20T15:35:09;7.93;;;3.57;;
10884;SDS011;5495;53.252;10.390;2023-03-20T15:38:02;6.13;;;3.10;;
10884;SDS011;5495;53.252;10.390;2023-03-20T15:40:57;7.83;;;3.43;;
10884;SDS011;5495;53.252;10.390;2023-03-20T15:43:55;4.13;;;2.83;;
10884;SDS011;5495;53.252;10.390;2023-03-20T15:46:49;4.47;;;3.17;;
10884;SDS011;5495;53.252;10.390;2023-03-20T15:49:27;5.23;;;3.30;;
10884;SDS011;5495;53.252;10.390;2023-03-20T15:52:35;7.13;;;3.57;;
10884;SDS011;5495;53.252;10.390;2023-03-20T15:55:24;4.73;;;3.20;;
10884;SDS011;5495;53.252;10.390;2023-03-20T15:58:17;8.77;;;3.23;;
10884;SDS011;5495;53.252;10.390;2023-03-20T16:00:48;5.43;;;3.40;;
10884;SDS011;5495;53.252;10.390;2023-03-20T16:03:25;5.70;;;3.50;;
10884;SDS011;5495;53.252;10.390;2023-03-20T16:06:11;5.87;;;2.97;;
10884;SDS011;5495;53.252;10.390;2023-03-20T16:11:40;5.93;;;3.30;;
10884;SDS011;5495;53.252;10.390;2023-03-20T16:14:33;5.17;;;3.33;;
10884;SDS011;5495;53.252;10.390;2023-03-20T16:19:58;4.93;;;3.30;;
10884;SDS011;5495;53.252;10.390;2023-03-20T16:25:35;5.27;;;3.30;;
10884;SDS011;5495;53.252;10.390;2023-03-20T16:28:23;4.37;;;3.33;;
10884;SDS011;5495;53.252;10.390;2023-03-20T16:31:14;7.63;;;3.80;;
10884;SDS011;5495;53.252;10.390;2023-03-20T16:33:50;6.00;;;3.83;;
10884;SDS011;5495;53.252;10.390;2023-03-20T16:36:48;6.50;;;3.17;;
10884;SDS011;5495;53.252;10.390;2023-03-20T16:39:40;7.20;;;4.00;;
10884;SDS011;5495;53.252;10.390;2023-03-20T16:42:19;7.67;;;3.87;;
10884;SDS011;5495;53.252;10.390;2023-03-20T16:45:12;7.33;;;3.70;;
10884;SDS011;5495;53.252;10.390;2023-03-20T16:51:23;5.47;;;3.33;;
10884;SDS011;5495;53.252;10.390;2023-03-20T16:53:59;5.67;;;3.17;;
10884;SDS011;5495;53.252;10.390;2023-03-20T16:56:42;5.73;;;2.87;;
10884;SDS011;5495;53.252;10.390;2023-03-20T16:59:57;5.60;;;3.37;;
10884;SDS011;5495;53.252;10.390;2023-03-20T17:02:38;5.23;;;3.33;;
10884;SDS011;5495;53.252;10.390;2023-03-20T17:08:59;8.07;;;3.43;;
10884;SDS011;5495;53.252;10.390;2023-03-20T17:15:04;5.17;;;3.60;;
10884;SDS011;5495;53.252;10.390;2023-03-20T17:17:53;6.30;;;3.17;;
10884;SDS011;5495;53.252;10.390;2023-03-20T17:23:37;6.57;;;3.47;;
10884;SDS011;5495;53.252;10.390;2023-03-20T17:26:51;6.30;;;2.90;;
10884;SDS011;5495;53.252;10.390;2023-03-20T17:29:30;8.20;;;3.40;;
10884;SDS011;5495;53.252;10.390;2023-03-20T17:36:49;3.90;;;2.70;;
10884;SDS011;5495;53.252;10.390;2023-03-20T17:38:21;5.03;;;2.70;;
10884;SDS011;5495;53.252;10.390;2023-03-20T17:41:17;4.60;;;2.63;;
10884;SDS011;5495;53.252;10.390;2023-03-20T17:44:08;7.37;;;3.20;;
10884;SDS011;5495;53.252;10.390;2023-03-20T17:46:42;4.40;;;3.17;;
10884;SDS011;5495;53.252;10.390;2023-03-20T17:49:29;5.47;;;3.07;;
10884;SDS011;5495;53.252;10.390;2023-03-20T17:52:02;5.03;;;3.30;;
10884;SDS011;5495;53.252;10.390;2023-03-20T17:54:47;3.77;;;2.73;;
10884;SDS011;5495;53.252;10.390;2023-03-20T17:57:25;4.77;;;3.07;;
10884;SDS011;5495;53.252;10.390;2023-03-20T18:00:04;6.93;;;2.70;;
10884;SDS011;5495;53.252;10.390;2023-03-20T18:02:50;6.53;;;2.57;;
10884;SDS011;5495;53.252;10.390;2023-03-20T18:05:28;6.83;;;3.10;;
10884;SDS011;5495;53.252;10.390;2023-03-20T18:08:32;4.13;;;3.27;;
10884;SDS011;5495;53.252;10.390;2023-03-20T18:12:31;6.27;;;3.10;;
10884;SDS011;5495;53.252;10.390;2023-03-20T18:14:51;3.40;;;2.40;;
10884;SDS011;5495;53.252;10.390;2023-03-20T18:17:25;6.60;;;3.00;;
10884;SDS011;5495;53.252;10.390;2023-03-20T18:25:52;5.60;;;2.57;;
10884;SDS011;5495;53.252;10.390;2023-03-20T18:28:25;5.70;;;2.63;;
10884;SDS011;5495;53.252;10.390;2023-03-20T18:30:59;5.87;;;2.63;;
10884;SDS011;5495;53.252;10.390;2023-03-20T18:33:37;3.97;;;2.50;;
10884;SDS011;5495;53.252;10.390;2023-03-20T18:36:21;5.63;;;3.00;;
10884;SDS011;5495;53.252;10.390;2023-03-20T18:38:57;10.17;;;3.17;;
10884;SDS011;5495;53.252;10.390;2023-03-20T18:41:30;5.83;;;3.13;;
10884;SDS011;5495;53.252;10.390;2023-03-20T18:44:06;3.70;;;2.63;;
10884;SDS011;5495;53.252;10.390;2023-03-20T18:47:08;3.60;;;2.70;;
10884;SDS011;5495;53.252;10.390;2023-03-20T18:49:49;4.57;;;2.83;;
10884;SDS011;5495;53.252;10.390;2023-03-20T18:52:32;8.63;;;3.20;;
10884;SDS011;5495;53.252;10.390;2023-03-20T18:55:06;5.07;;;2.50;;
10884;SDS011;5495;53.252;10.390;2023-03-20T18:57:52;5.83;;;2.63;;
10884;SDS011;5495;53.252;10.390;2023-03-20T19:00:21;4.90;;;2.70;;
10884;SDS011;5495;53.252;10.390;2023-03-20T19:02:59;4.30;;;2.20;;
10884;SDS011;5495;53.252;10.390;2023-03-20T19:05:37;7.67;;;2.67;;
10884;SDS011;5495;53.252;10.390;2023-03-20T19:08:16;4.90;;;2.47;;
10884;SDS011;5495;53.252;10.390;2023-03-20T19:10:52;5.47;;;2.70;;
10884;SDS011;5495;53.252;10.390;2023-03-20T19:13:51;8.83;;;3.23;;
10884;SDS011;5495;53.252;10.390;2023-03-20T19:16:25;8.20;;;2.97;;
10884;SDS011;5495;53.252;10.390;2023-03-20T19:25:16;6.23;;;2.97;;
10884;SDS011;5495;53.252;10.390;2023-03-20T19:28:09;6.07;;;2.73;;
10884;SDS011;5495;53.252;10.390;2023-03-20T19:31:00;5.07;;;2.60;;
10884;SDS011;5495;53.252;10.390;2023-03-20T19:36:24;5.10;;;2.80;;
10884;SDS011;5495;53.252;10.390;2023-03-20T19:39:22;6.83;;;2.43;;
10884;SDS011;5495;53.252;10.390;2023-03-20T19:42:20;6.83;;;2.37;;
10884;SDS011;5495;53.252;10.390;2023-03-20T19:44:56;3.20;;;2.47;;
10884;SDS011;5495;53.252;10.390;2023-03-20T19:47:48;4.93;;;2.50;;
10884;SDS011;5495;53.252;10.390;2023-03-20T19:50:27;4.43;;;2.73;;
10884;SDS011;5495;53.252;10.390;2023-03-20T19:53:07;6.97;;;2.57;;
10884;SDS011;5495;53.252;10.390;2023-03-20T19:55:52;4.07;;;2.50;;
10884;SDS011;5495;53.252;10.390;2023-03-20T20:05:06;5.07;;;3.20;;
10884;SDS011;5495;53.252;10.390;2023-03-20T20:07:52;4.27;;;2.63;;
10884;SDS011;5495;53.252;10.390;2023-03-20T20:10:31;5.40;;;2.97;;
10884;SDS011;5495;53.252;10.390;2023-03-20T20:13:35;7.80;;;2.87;;
10884;SDS011;5495;53.252;10.390;2023-03-20T20:16:31;4.27;;;2.67;;
10884;SDS011;5495;53.252;10.390;2023-03-20T20:19:07;7.30;;;3.33;;
10884;SDS011;5495;53.252;10.390;2023-03-20T20:21:37;5.40;;;3.00;;
10884;SDS011;5495;53.252;10.390;2023-03-20T20:24:11;5.20;;;3.10;;
10884;SDS011;5495;53.252;10.390;2023-03-20T20:29:34;5.43;;;2.80;;
10884;SDS011;5495;53.252;10.390;2023-03-20T20:32:10;5.33;;;3.20;;
10884;SDS011;5495;53.252;10.390;2023-03-20T20:34:48;6.20;;;3.20;;
10884;SDS011;5495;53.252;10.390;2023-03-20T20:37:17;4.93;;;3.70;;
10884;SDS011;5495;53.252;10.390;2023-03-20T20:40:03;5.17;;;3.10;;
10884;SDS011;5495;53.252;10.390;2023-03-20T20:42:44;4.53;;;3.07;;
10884;SDS011;5495;53.252;10.390;2023-03-20T20:45:21;6.40;;;3.00;;
10884;SDS011;5495;53.252;10.390;2023-03-20T20:48:13;4.30;;;3.23;;
10884;SDS011;5495;53.252;10.390;2023-03-20T20:50:50;4.23;;;3.10;;
10884;SDS011;5495;53.252;10.390;2023-03-20T20:53:34;8.60;;;3.37;;
10884;SDS011;5495;53.252;10.390;2023-03-20T20:56:24;3.97;;;3.00;;
10884;SDS011;5495;53.252;10.390;2023-03-20T20:58:59;6.27;;;3.57;;
10884;SDS011;5495;53.252;10.390;2023-03-20T21:01:34;4.10;;;3.07;;
10884;SDS011;5495;53.252;10.390;2023-03-20T21:04:12;4.70;;;3.47;;
10884;SDS011;5495;53.252;10.390;2023-03-20T21:06:40;4.07;;;3.10;;
10884;SDS011;5495;53.252;10.390;2023-03-20T21:09:22;5.83;;;3.87;;
10884;SDS011;5495;53.252;10.390;2023-03-20T21:11:55;5.53;;;3.23;;
10884;SDS011;5495;53.252;10.390;2023-03-20T21:14:33;5.53;;;3.70;;
10884;SDS011;5495;53.252;10.390;2023-03-20T21:17:32;5.03;;;4.13;;
10884;SDS011;5495;53.252;10.390;2023-03-20T21:20:39;7.00;;;3.90;;
10884;SDS011;5495;53.252;10.390;2023-03-20T21:23:10;5.03;;;3.80;;
10884;SDS011;5495;53.252;10.390;2023-03-20T21:25:44;8.17;;;4.37;;
10884;SDS011;5495;53.252;10.390;2023-03-20T21:31:41;6.33;;;4.63;;
10884;SDS011;5495;53.252;10.390;2023-03-20T21:34:24;6.27;;;4.43;;
10884;SDS011;5495;53.252;10.390;2023-03-20T21:37:14;6.77;;;5.00;;
10884;SDS011;5495;53.252;10.390;2023-03-20T21:39:48;7.63;;;4.83;;
10884;SDS011;5495;53.252;10.390;2023-03-20T21:42:31;11.77;;;4.70;;
10884;SDS011;5495;53.252;10.390;2023-03-20T21:45:16;6.03;;;4.83;;